Time;durP1;ratioP1;P1;durP2;ratioP2;P2;SDS_P1;SDS_P2;PMS_P1;PMS_P2;Temp;Humidity;BMP_temperature;BMP_pressure;BME280_temperature;BME280_humidity;BME280_pressure;Samples;Min_cycle;Max_cycle;Signal;HPM_P1;HPM_P2
2022/04/11 00:01:02;;;;;;;6.78;3.15;;;;;;;7.04;62.14;102027.84;5008400;28;20429;-63
2022/04/11 00:03:29;;;;;;;7.57;3.20;;;;;;;6.99;62.15;102020.00;5005189;28;20052;-63
2022/04/11 00:05:55;;;;;;;4.95;2.83;;;;;;;7.00;62.50;102024.38;5007371;28;20583;-63
2022/04/11 00:08:21;;;;;;;7.63;3.80;;;;;;;6.88;62.76;102014.75;5006321;28;20105;-64
2022/04/11 00:10:47;;;;;;;7.25;3.25;;;;;;;6.86;62.95;102010.41;5006762;28;20131;-63
2022/04/11 00:13:12;;;;;;;4.85;2.95;;;;;;;6.93;62.69;102001.66;5006011;28;20045;-63
2022/04/11 00:15:39;;;;;;;9.10;3.70;;;;;;;6.92;62.36;101998.16;5006658;28;20464;-62
2022/04/11 00:18:05;;;;;;;7.05;2.95;;;;;;;6.87;62.81;102001.66;5006895;28;20816;-63
2022/04/11 00:20:31;;;;;;;7.13;3.28;;;;;;;6.93;62.81;101999.03;5006686;28;20032;-62
2022/04/11 00:22:56;;;;;;;7.03;3.40;;;;;;;6.89;62.69;101992.91;5006618;28;20030;-64
2022/04/11 00:25:22;;;;;;;6.75;3.40;;;;;;;6.98;62.63;101993.81;5006064;28;20049;-63
2022/04/11 00:27:47;;;;;;;9.23;3.65;;;;;;;6.99;62.90;101995.53;5007522;28;20025;-63
2022/04/11 00:30:13;;;;;;;9.30;4.32;;;;;;;7.07;63.12;101989.41;5006866;28;20018;-63
2022/04/11 00:32:43;;;;;;;7.18;3.00;;;;;;;6.98;63.35;101989.41;5015528;28;20026;-64
2022/04/11 00:35:11;;;;;;;11.60;4.07;;;;;;;7.00;63.26;101995.53;5026615;28;20025;-64
2022/04/11 00:37:37;;;;;;;8.48;3.55;;;;;;;6.98;63.36;101994.66;5026799;28;20120;-63
2022/04/11 00:40:04;;;;;;;8.65;3.80;;;;;;;6.98;64.12;101986.78;5026224;28;20013;-64
2022/04/11 00:42:30;;;;;;;8.60;3.22;;;;;;;6.97;63.91;101985.06;5026395;28;20068;-64
2022/04/11 00:44:56;;;;;;;9.88;3.75;;;;;;;6.88;63.96;101987.66;5026581;28;20824;-63
2022/04/11 00:47:22;;;;;;;7.60;3.38;;;;;;;6.79;63.85;101989.44;5015575;28;20022;-65
2022/04/11 00:49:47;;;;;;;7.50;2.90;;;;;;;6.87;63.80;101991.16;5006690;28;20026;-62
2022/04/11 00:52:13;;;;;;;10.30;3.85;;;;;;;6.85;63.88;101995.53;5005423;28;20041;-64
2022/04/11 00:54:40;;;;;;;10.88;4.55;;;;;;;6.76;64.09;101988.53;5005826;28;20057;-65
2022/04/11 00:57:06;;;;;;;8.23;3.60;;;;;;;6.75;64.74;101984.19;5007266;28;20022;-62
2022/04/11 00:59:31;;;;;;;5.25;3.10;;;;;;;6.78;64.64;101987.69;5006304;28;20018;-64
2022/04/11 01:01:57;;;;;;;8.07;4.00;;;;;;;6.82;64.87;101984.19;5006671;28;20026;-64
2022/04/11 01:04:26;;;;;;;7.78;3.50;;;;;;;6.88;64.70;101985.94;5012753;28;20741;-64
2022/04/11 01:06:55;;;;;;;5.18;3.08;;;;;;;6.83;64.78;101985.03;5025036;28;20075;-63
2022/04/11 01:09:21;;;;;;;4.72;3.63;;;;;;;6.86;64.97;101984.19;5024244;28;20022;-64
2022/04/11 01:11:46;;;;;;;7.88;3.55;;;;;;;6.79;64.67;101973.72;5024030;28;20369;-62
2022/04/11 01:14:11;;;;;;;3.42;3.13;;;;;;;6.79;64.68;101975.44;5024747;28;20287;-63
2022/04/11 01:16:37;;;;;;;9.00;3.80;;;;;;;6.83;64.72;101974.56;5021481;28;20436;-66
2022/04/11 01:19:03;;;;;;;7.03;3.40;;;;;;;6.77;65.11;101978.06;5006782;28;20372;-63
2022/04/11 01:21:30;;;;;;;10.60;3.47;;;;;;;6.77;64.83;101970.19;5004850;28;20030;-63
2022/04/11 01:23:56;;;;;;;7.60;3.53;;;;;;;6.68;64.86;101970.19;5004194;28;20275;-64
2022/04/11 01:26:22;;;;;;;6.57;3.25;;;;;;;6.69;65.08;101972.81;5006082;28;20024;-63
2022/04/11 01:28:48;;;;;;;8.48;3.25;;;;;;;6.59;65.43;101965.81;5005836;28;20022;-63
2022/04/11 01:31:14;;;;;;;6.82;3.78;;;;;;;6.55;65.83;101969.31;5006034;28;20544;-64
2022/04/11 01:33:40;;;;;;;8.32;3.50;;;;;;;6.53;65.86;101964.06;5003962;28;20125;-63
2022/04/11 01:36:05;;;;;;;7.10;3.20;;;;;;;6.50;65.82;101966.69;5004974;28;20104;-64
2022/04/11 01:38:30;;;;;;;8.00;3.50;;;;;;;6.51;66.03;101963.22;5004747;28;20049;-64
2022/04/11 01:40:57;;;;;;;6.90;3.58;;;;;;;6.50;66.16;101965.84;5005608;28;20100;-65
2022/04/11 01:43:23;;;;;;;8.50;4.32;;;;;;;6.56;66.25;101964.06;5005344;28;20026;-64
2022/04/11 01:45:49;;;;;;;6.93;3.80;;;;;;;6.46;66.59;101957.09;5005966;28;20080;-64
2022/04/11 01:48:14;;;;;;;8.35;4.20;;;;;;;6.48;66.59;101957.97;5004478;28;20034;-63
2022/04/11 01:50:40;;;;;;;4.28;3.65;;;;;;;6.43;66.97;101962.31;5005285;28;20161;-64
2022/04/11 01:53:23;;;;;;;8.00;3.92;;;;;;;6.40;66.98;101954.44;5005723;28;20044;-64
2022/04/11 01:55:48;;;;;;;7.70;3.95;;;;;;;6.40;66.59;101949.22;5005355;28;20022;-64
2022/04/11 01:58:15;;;;;;;7.10;3.90;;;;;;;6.41;66.77;101949.22;5004148;28;20033;-63
2022/04/11 02:00:40;;;;;;;5.88;4.20;;;;;;;6.41;66.54;101950.97;5005704;28;20014;-65
2022/04/11 02:03:07;;;;;;;8.63;3.67;;;;;;;6.25;67.07;101955.28;5006219;28;20045;-63
2022/04/11 02:05:33;;;;;;;10.00;4.22;;;;;;;6.23;67.28;101952.66;5005019;28;20400;-64
2022/04/11 02:07:59;;;;;;;9.35;4.53;;;;;;;6.19;67.29;101961.38;5004983;28;20026;-62
2022/04/11 02:10:25;;;;;;;6.70;4.30;;;;;;;6.18;67.31;101964.88;5004486;28;20033;-63
2022/04/11 02:12:51;;;;;;;11.23;4.80;;;;;;;6.11;67.50;101963.97;5005504;28;20018;-63
2022/04/11 02:15:16;;;;;;;6.35;4.13;;;;;;;5.98;67.99;101959.53;5005669;28;20164;-65
2022/04/11 02:17:43;;;;;;;6.97;3.80;;;;;;;5.96;67.86;101961.31;5004072;28;20101;-65
2022/04/11 02:20:08;;;;;;;11.30;4.53;;;;;;;5.89;68.08;101958.66;5003238;28;20029;-64
2022/04/11 02:22:47;;;;;;;6.53;3.70;;;;;;;5.86;68.27;101957.75;5004678;28;20033;-63
2022/04/11 02:25:13;;;;;;;10.48;5.82;;;;;;;5.75;68.64;101955.97;5003975;28;20113;-65
2022/04/11 02:27:39;;;;;;;5.85;3.85;;;;;;;5.71;68.72;101954.22;5005861;28;20161;-63
2022/04/11 02:30:05;;;;;;;7.03;4.78;;;;;;;5.69;68.84;101955.97;5006161;28;20475;-63
2022/04/11 02:32:30;;;;;;;7.60;4.47;;;;;;;5.73;68.86;101954.22;5004275;28;20030;-63
2022/04/11 02:34:55;;;;;;;10.98;5.47;;;;;;;5.74;68.98;101956.84;5004275;28;20026;-63
2022/04/11 02:37:21;;;;;;;10.75;5.30;;;;;;;5.80;68.71;101956.88;5003719;28;20345;-63
2022/04/11 02:39:46;;;;;;;9.20;5.70;;;;;;;5.80;68.72;101954.25;5007154;28;20105;-64
2022/04/11 02:42:22;;;;;;;8.35;5.38;;;;;;;5.80;68.68;101956.00;5010872;28;20038;-65
2022/04/11 02:44:48;;;;;;;8.85;4.80;;;;;;;5.79;68.90;101952.53;5009183;28;20026;-62
2022/04/11 02:47:13;;;;;;;12.18;5.35;;;;;;;5.78;68.86;101950.75;5007608;28;20131;-64
2022/04/11 02:49:39;;;;;;;8.75;4.93;;;;;;;5.79;68.97;101952.53;5008509;28;20033;-64
2022/04/11 02:52:04;;;;;;;7.88;4.57;;;;;;;5.86;69.07;101957.75;5009531;28;20026;-64
2022/04/11 02:54:30;;;;;;;10.75;5.55;;;;;;;5.80;68.95;101956.88;5005624;28;20424;-64
2022/04/11 02:56:55;;;;;;;9.68;5.82;;;;;;;5.80;69.12;101949.03;5005999;28;20214;-63
2022/04/11 02:59:20;;;;;;;11.00;5.82;;;;;;;5.81;69.16;101949.91;5005634;28;20014;-63
2022/04/11 03:01:46;;;;;;;9.00;5.70;;;;;;;5.84;68.81;101951.66;5005801;28;20108;-63
2022/04/11 03:04:11;;;;;;;11.13;5.63;;;;;;;5.76;69.25;101946.41;5007246;28;20207;-64
2022/04/11 03:06:36;;;;;;;8.60;4.93;;;;;;;5.71;69.18;101938.53;5007396;28;20037;-63
2022/04/11 03:09:02;;;;;;;10.18;5.32;;;;;;;5.69;69.52;101938.53;5008519;28;20033;-63
2022/04/11 03:11:27;;;;;;;10.88;5.97;;;;;;;5.78;69.58;101935.06;5007494;28;20034;-63
2022/04/11 03:13:52;;;;;;;10.18;6.07;;;;;;;5.75;69.36;101931.59;5007645;28;20030;-64
2022/04/11 03:16:18;;;;;;;9.35;6.18;;;;;;;5.73;69.00;101936.81;5007161;28;20026;-63
2022/04/11 03:18:43;;;;;;;10.70;6.40;;;;;;;5.68;69.59;101942.00;5008124;28;20084;-63
2022/04/11 03:21:08;;;;;;;10.18;6.18;;;;;;;5.59;69.82;101930.63;5008135;28;20034;-64
2022/04/11 03:23:34;;;;;;;8.23;5.55;;;;;;;5.53;70.08;101934.97;5007922;28;20054;-62
2022/04/11 03:25:59;;;;;;;10.63;6.70;;;;;;;5.56;70.07;101934.09;5022159;28;20069;-65
2022/04/11 03:28:24;;;;;;;12.55;6.90;;;;;;;5.62;69.82;101928.03;5027792;28;20052;-63
2022/04/11 03:30:49;;;;;;;14.07;7.20;;;;;;;5.61;69.64;101926.28;5026984;28;20113;-62
2022/04/11 03:33:15;;;;;;;11.00;6.65;;;;;;;5.57;70.11;101926.25;5027875;28;20108;-64
2022/04/11 03:35:40;;;;;;;10.35;6.65;;;;;;;5.53;70.05;101924.50;5027939;28;20025;-64
2022/04/11 03:38:05;;;;;;;12.35;6.78;;;;;;;5.47;70.49;101927.09;5019587;28;20376;-65
2022/04/11 03:40:31;;;;;;;9.82;6.47;;;;;;;5.50;70.50;101927.09;5006207;28;20245;-64
2022/04/11 03:42:56;;;;;;;12.15;6.65;;;;;;;5.44;70.53;101924.44;5006858;28;20030;-64
2022/04/11 03:45:21;;;;;;;12.65;6.43;;;;;;;5.42;70.95;101926.22;5007706;28;20026;-64
2022/04/11 03:47:47;;;;;;;10.93;6.97;;;;;;;5.52;70.58;101922.78;5007309;28;20121;-65
2022/04/11 03:50:12;;;;;;;10.93;7.00;;;;;;;5.54;70.36;101923.63;5006889;28;20026;-64
2022/04/11 03:52:37;;;;;;;15.05;7.63;;;;;;;5.53;70.26;101924.50;5007075;28;20060;-64
2022/04/11 03:55:04;;;;;;;10.07;7.22;;;;;;;5.61;69.77;101923.66;5006426;28;20444;-64
2022/04/11 03:57:29;;;;;;;12.88;7.78;;;;;;;5.61;70.02;101927.16;5007525;28;20038;-65
2022/04/11 03:59:55;;;;;;;12.73;7.38;;;;;;;5.64;70.11;101918.44;5007557;28;20026;-64
2022/04/11 04:02:20;;;;;;;13.20;7.35;;;;;;;5.67;69.96;101921.97;5007473;28;20469;-64
2022/04/11 04:04:45;;;;;;;11.80;7.40;;;;;;;5.74;69.79;101927.19;5006052;28;20285;-63
2022/04/11 04:07:12;;;;;;;11.88;7.53;;;;;;;5.61;70.09;101918.44;5006661;28;20481;-64
2022/04/11 04:09:38;;;;;;;15.13;7.40;;;;;;;5.59;70.28;101920.16;5004425;28;20104;-64
2022/04/11 04:12:04;;;;;;;11.23;7.03;;;;;;;5.62;70.31;101917.56;5007875;28;20481;-62
2022/04/11 04:14:30;;;;;;;12.48;6.88;;;;;;;5.63;70.28;101919.34;5007084;28;20400;-63
2022/04/11 04:16:55;;;;;;;13.80;8.32;;;;;;;5.56;70.23;101926.25;5005257;28;20026;-63
2022/04/11 04:19:20;;;;;;;13.45;8.05;;;;;;;5.54;70.53;101925.41;5006829;28;20025;-63
2022/04/11 04:21:46;;;;;;;13.75;8.60;;;;;;;5.61;70.34;101921.06;5006951;28;20021;-63
2022/04/11 04:24:11;;;;;;;11.65;7.88;;;;;;;5.64;70.67;101916.72;5008316;28;20040;-63
2022/04/11 04:26:36;;;;;;;11.95;7.75;;;;;;;5.66;70.24;101909.75;5007269;28;20026;-63
2022/04/11 04:29:02;;;;;;;12.13;8.55;;;;;;;5.73;69.92;101905.41;5006643;28;20507;-63
2022/04/11 04:31:27;;;;;;;11.38;7.47;;;;;;;5.73;69.42;101902.81;5005287;28;20040;-63
2022/04/11 04:33:52;;;;;;;19.35;9.18;;;;;;;5.76;69.47;101902.81;5007193;28;20028;-64
2022/04/11 04:36:18;;;;;;;13.20;7.72;;;;;;;5.73;69.58;101900.19;5006176;28;20041;-62
2022/04/11 04:38:43;;;;;;;14.18;8.85;;;;;;;5.76;69.87;101899.31;5004947;28;20026;-62
2022/04/11 04:41:08;;;;;;;16.30;9.25;;;;;;;5.72;69.84;101897.56;5006364;28;20105;-62
2022/04/11 04:43:33;;;;;;;13.57;8.10;;;;;;;5.67;69.42;101894.94;5009353;28;20120;-62
2022/04/11 04:45:59;;;;;;;15.02;9.23;;;;;;;5.67;68.73;101895.81;5008230;28;20026;-63
2022/04/11 04:48:24;;;;;;;14.57;9.07;;;;;;;5.67;68.51;101894.94;5005872;28;20098;-64
2022/04/11 04:50:49;;;;;;;10.63;7.50;;;;;;;5.67;68.57;101894.94;5004915;28;20042;-63
2022/04/11 04:53:15;;;;;;;13.60;8.70;;;;;;;5.56;68.79;101898.38;5002559;28;20052;-63
2022/04/11 04:55:41;;;;;;;12.50;8.55;;;;;;;5.57;68.58;101891.41;5005035;28;20084;-63
2022/04/11 04:58:06;;;;;;;10.55;7.90;;;;;;;5.55;68.70;101896.63;5005848;28;20049;-65
2022/04/11 05:00:32;;;;;;;11.90;8.65;;;;;;;5.52;68.78;101901.84;5005528;28;20417;-65
2022/04/11 05:02:57;;;;;;;14.13;8.63;;;;;;;5.46;68.80;101896.59;5003756;28;20120;-63
2022/04/11 05:05:22;;;;;;;13.52;9.38;;;;;;;5.44;68.44;101895.69;5004951;28;20050;-63
2022/04/11 05:07:48;;;;;;;16.02;8.35;;;;;;;5.50;67.97;101895.72;5005426;28;20118;-64
2022/04/11 05:10:14;;;;;;;11.18;8.60;;;;;;;5.53;67.86;101903.59;4999081;28;20030;-64
2022/04/11 05:12:44;;;;;;;15.95;8.43;;;;;;;5.52;67.76;101896.63;4997353;28;20032;-65
2022/04/11 05:15:10;;;;;;;15.85;8.93;;;;;;;5.61;67.24;101889.69;4992752;28;20031;-63
2022/04/11 05:17:35;;;;;;;13.52;8.98;;;;;;;5.61;67.21;101895.78;4985807;28;20500;-63
2022/04/11 05:20:02;;;;;;;14.10;9.10;;;;;;;5.50;67.84;101898.34;4985802;28;20049;-64
2022/04/11 05:22:27;;;;;;;14.52;8.55;;;;;;;5.56;67.41;101893.16;4985977;28;20413;-64
2022/04/11 05:24:53;;;;;;;17.55;9.52;;;;;;;5.56;67.58;101887.03;4985726;28;20081;-64
2022/04/11 05:27:18;;;;;;;19.80;9.70;;;;;;;5.53;67.14;101892.25;4996731;28;20037;-63
2022/04/11 05:29:43;;;;;;;17.13;9.68;;;;;;;5.62;67.18;101899.25;5009362;28;20065;-65
2022/04/11 05:32:08;;;;;;;15.85;9.18;;;;;;;5.60;67.35;101899.25;4993754;28;20044;-63
2022/04/11 05:34:34;;;;;;;20.08;9.25;;;;;;;5.71;66.91;101904.53;5004822;28;20046;-63
2022/04/11 05:36:59;;;;;;;14.18;8.70;;;;;;;5.69;66.95;101903.66;5005566;28;20080;-64
2022/04/11 05:39:24;;;;;;;15.55;9.25;;;;;;;5.66;66.87;101903.66;5004748;28;20030;-64
2022/04/11 05:41:50;;;;;;;18.25;8.70;;;;;;;5.75;66.53;101903.66;4998670;28;20081;-64
2022/04/11 05:44:16;;;;;;;16.55;10.30;;;;;;;5.84;66.45;101908.06;4998358;28;20252;-61
2022/04/11 05:46:41;;;;;;;14.13;8.48;;;;;;;5.99;66.00;101904.59;4985622;28;20040;-62
2022/04/11 05:49:06;;;;;;;12.60;7.88;;;;;;;6.02;66.03;101896.75;4992600;28;20307;-63
2022/04/11 05:51:32;;;;;;;17.00;9.02;;;;;;;6.03;65.94;101906.38;4996263;28;20550;-65
2022/04/11 05:53:57;;;;;;;15.15;8.48;;;;;;;6.16;65.73;101901.19;4995013;28;20029;-63
2022/04/11 05:56:22;;;;;;;11.50;8.20;;;;;;;6.16;65.70;101899.47;4994366;28;20612;-65
2022/04/11 05:58:48;;;;;;;14.13;7.93;;;;;;;6.37;65.16;101902.09;4993817;28;20117;-64
2022/04/11 06:01:13;;;;;;;17.25;9.38;;;;;;;6.37;65.08;101897.72;4994138;28;20029;-63
2022/04/11 06:03:39;;;;;;;15.82;9.13;;;;;;;6.41;65.33;101899.47;4999165;28;20037;-65
2022/04/11 06:06:05;;;;;;;15.25;9.25;;;;;;;6.50;65.25;101908.22;5005530;28;20074;-65
2022/04/11 06:08:31;;;;;;;14.50;10.10;;;;;;;6.63;64.63;101898.63;4986537;28;20049;-64
2022/04/11 06:10:56;;;;;;;24.63;9.07;;;;;;;6.70;64.11;101900.34;4985909;28;20042;-61
2022/04/11 06:13:21;;;;;;;14.90;8.68;;;;;;;6.88;63.70;101903.81;4986066;28;20548;-64
2022/04/11 06:15:47;;;;;;;13.90;8.90;;;;;;;6.89;63.77;101900.34;4989571;28;20026;-66
2022/04/11 06:18:12;;;;;;;26.90;10.10;;;;;;;6.91;63.37;101904.69;5006451;28;20026;-66
2022/04/11 06:20:37;;;;;;;16.60;9.15;;;;;;;7.03;63.17;101909.06;5008574;28;20450;-65
2022/04/11 06:23:03;;;;;;;17.95;9.93;;;;;;;7.24;62.51;101906.38;5007182;28;20034;-65
2022/04/11 06:25:28;;;;;;;18.05;9.27;;;;;;;7.31;62.12;101897.59;5004740;28;20076;-63
2022/04/11 06:27:54;;;;;;;18.27;10.05;;;;;;;7.44;61.76;101903.72;5002916;28;20499;-62
2022/04/11 06:30:19;;;;;;;18.20;9.63;;;;;;;7.41;61.56;101904.56;5007338;28;20107;-62
2022/04/11 06:32:44;;;;;;;18.83;9.80;;;;;;;7.50;61.46;101901.06;5009379;28;20076;-61
2022/04/11 06:35:10;;;;;;;19.13;9.75;;;;;;;7.66;61.20;101906.22;5007696;28;20018;-62
2022/04/11 06:37:35;;;;;;;18.25;10.00;;;;;;;7.70;61.05;101906.22;5008180;28;20061;-61
2022/04/11 06:40:02;;;;;;;15.85;9.93;;;;;;;7.93;60.63;101907.84;5007927;28;20025;-60
2022/04/11 06:42:28;;;;;;;11.00;8.52;;;;;;;8.05;60.47;101906.91;5008390;28;20045;-60
2022/04/11 06:44:53;;;;;;;14.68;8.25;;;;;;;8.12;60.42;101901.63;5003352;28;20022;-61
2022/04/11 06:47:21;;;;;;;18.20;9.63;;;;;;;8.07;60.37;101904.28;4999964;28;20057;-60
2022/04/11 06:49:46;;;;;;;21.70;9.27;;;;;;;8.07;59.51;101906.91;4997557;28;20096;-61
2022/04/11 06:52:12;;;;;;;15.23;8.35;;;;;;;8.19;59.20;101908.56;4996688;28;20477;-61
2022/04/11 06:54:38;;;;;;;17.60;8.85;;;;;;;8.28;59.12;101907.66;5004195;28;20158;-62
2022/04/11 06:57:03;;;;;;;11.77;7.97;;;;;;;8.34;58.18;101907.59;5007117;28;20026;-63
2022/04/11 06:59:28;;;;;;;14.48;8.48;;;;;;;8.32;58.56;101905.00;5007834;28;20429;-61
2022/04/11 07:01:54;;;;;;;14.57;8.63;;;;;;;8.29;58.70;101905.00;5007647;28;20069;-63
2022/04/11 07:04:20;;;;;;;16.50;9.07;;;;;;;8.26;58.78;101905.03;4999796;28;20042;-62
2022/04/11 07:06:46;;;;;;;16.92;9.30;;;;;;;8.42;59.02;101904.91;4998959;28;20269;-61
2022/04/11 07:09:11;;;;;;;15.40;9.10;;;;;;;8.55;58.63;101890.81;5002727;28;20026;-61
2022/04/11 07:11:36;;;;;;;19.90;9.88;;;;;;;8.56;59.66;101892.56;5007683;28;20018;-61
2022/04/11 07:14:03;;;;;;;15.00;9.82;;;;;;;8.50;59.86;101897.84;5008114;28;20109;-60
2022/04/11 07:16:28;;;;;;;15.20;9.75;;;;;;;8.67;59.76;101895.09;5007648;28;20369;-62
2022/04/11 07:18:53;;;;;;;17.60;10.25;;;;;;;8.83;59.68;101889.69;5008132;28;20032;-62
2022/04/11 07:21:19;;;;;;;14.55;9.25;;;;;;;8.87;59.69;101887.91;5006653;28;20088;-63
2022/04/11 07:23:44;;;;;;;13.90;9.98;;;;;;;8.98;60.04;101888.69;5006592;28;20034;-61
2022/04/11 07:26:09;;;;;;;13.13;10.02;;;;;;;9.06;59.86;101886.81;5006874;28;20025;-60
2022/04/11 07:28:35;;;;;;;20.88;10.52;;;;;;;9.19;59.93;101891.97;5006991;28;20580;-62
2022/04/11 07:31:00;;;;;;;18.30;10.07;;;;;;;9.44;59.27;101889.03;5005394;28;20052;-60
2022/04/11 07:33:25;;;;;;;18.58;10.98;;;;;;;9.48;57.79;101891.63;5006653;28;20030;-61
2022/04/11 07:35:52;;;;;;;14.00;8.10;;;;;;;9.61;56.99;101889.69;5008061;28;20100;-61
2022/04/11 07:38:17;;;;;;;19.02;9.13;;;;;;;9.70;57.15;101877.31;5005844;28;20030;-60
2022/04/11 07:40:42;;;;;;;18.02;9.77;;;;;;;9.59;58.51;101877.44;5007949;28;20568;-61
2022/04/11 07:43:08;;;;;;;15.77;9.88;;;;;;;9.63;59.16;101878.28;5006975;28;20444;-63
2022/04/11 07:45:33;;;;;;;13.25;8.93;;;;;;;9.71;58.67;101879.06;5007722;28;20097;-61
2022/04/11 07:47:58;;;;;;;13.52;10.23;;;;;;;9.71;58.72;101879.94;5007936;28;20030;-61
2022/04/11 07:50:24;;;;;;;13.85;9.27;;;;;;;9.71;58.53;101874.66;5005527;28;20037;-60
2022/04/11 07:52:49;;;;;;;12.18;9.13;;;;;;;9.77;57.73;101876.34;5004939;28;20120;-61
2022/04/11 07:55:17;;;;;;;11.10;7.80;;;;;;;9.95;56.82;101862.03;5004965;28;20069;-60
2022/04/11 07:57:43;;;;;;;15.23;8.88;;;;;;;10.21;55.62;101866.03;5006103;28;20110;-63
2022/04/11 08:00:09;;;;;;;10.40;8.00;;;;;;;10.30;55.79;101857.09;5006183;28;20348;-62
2022/04/11 08:02:34;;;;;;;14.98;8.52;;;;;;;10.27;54.48;101854.53;5006964;28;20057;-61
2022/04/11 08:05:05;;;;;;;14.50;7.57;;;;;;;10.44;55.22;101850.72;5005599;28;20327;-61
2022/04/11 08:07:32;;;;;;;8.75;7.38;;;;;;;10.65;55.44;101849.53;5006276;28;20782;-61
2022/04/11 08:09:58;;;;;;;13.57;8.10;;;;;;;10.51;56.79;101844.53;5006601;28;20049;-63
2022/04/11 08:12:23;;;;;;;15.48;8.15;;;;;;;10.69;55.00;101851.19;4984755;28;20570;-61
2022/04/11 08:14:48;;;;;;;11.48;7.72;;;;;;;10.74;54.15;101843.22;5000585;28;20030;-62
2022/04/11 08:17:14;;;;;;;15.85;7.45;;;;;;;10.77;54.37;101847.59;5005502;28;20417;-64
2022/04/11 08:19:39;;;;;;;9.35;6.97;;;;;;;10.84;53.78;101844.78;5005436;28;20100;-61
2022/04/11 08:22:05;;;;;;;15.45;7.43;;;;;;;10.90;53.70;101842.94;4980603;28;20401;-61
2022/04/11 08:24:31;;;;;;;10.48;7.03;;;;;;;10.73;53.30;101838.84;4984180;28;20022;-61
2022/04/11 08:26:58;;;;;;;15.10;7.43;;;;;;;10.99;53.52;101840.13;4985584;28;20052;-61
2022/04/11 08:29:27;;;;;;;13.07;6.32;;;;;;;11.34;53.02;101842.94;4986035;28;20045;-61
2022/04/11 08:31:52;;;;;;;11.43;7.30;;;;;;;11.29;52.30;101843.03;4982101;28;20093;-62
2022/04/11 08:34:17;;;;;;;15.57;6.85;;;;;;;11.15;52.60;101839.81;4972603;28;20184;-60
2022/04/11 08:36:44;;;;;;;13.07;7.20;;;;;;;11.41;52.89;101843.69;4975188;28;20546;-61
2022/04/11 08:39:10;;;;;;;11.98;5.97;;;;;;;11.77;51.91;101833.19;4980136;28;20113;-61
2022/04/11 08:41:36;;;;;;;13.27;7.28;;;;;;;11.90;51.85;101833.81;4983057;28;20412;-61
2022/04/11 08:44:04;;;;;;;9.73;6.00;;;;;;;12.03;52.14;101839.66;4987269;28;20030;-61
2022/04/11 08:46:30;;;;;;;12.70;7.00;;;;;;;12.12;52.40;101841.22;4986575;28;20029;-61
2022/04/11 08:48:56;;;;;;;11.18;6.40;;;;;;;12.03;51.69;101839.66;4986729;28;20365;-62
2022/04/11 08:51:21;;;;;;;14.05;6.63;;;;;;;11.99;50.72;101843.28;4983924;28;20038;-61
2022/04/11 08:53:47;;;;;;;8.23;5.80;;;;;;;12.13;50.69;101849.13;4985948;28;20037;-62
2022/04/11 08:56:12;;;;;;;11.15;5.43;;;;;;;12.10;50.54;101840.41;4986338;28;20029;-61
2022/04/11 08:58:37;;;;;;;10.85;5.95;;;;;;;11.92;50.30;101842.53;4985486;28;20044;-62
2022/04/11 09:01:03;;;;;;;12.10;6.22;;;;;;;12.11;50.71;101837.75;4984302;28;20238;-63
2022/04/11 09:03:28;;;;;;;10.65;5.70;;;;;;;12.18;50.45;101830.50;4985935;28;20062;-59
2022/04/11 09:06:08;;;;;;;11.52;5.70;;;;;;;12.36;50.16;101829.19;4985947;28;20128;-60
2022/04/11 09:08:42;;;;;;;10.45;6.25;;;;;;;12.40;50.75;101827.31;4983852;28;20042;-61
2022/04/11 09:11:08;;;;;;;11.85;6.85;;;;;;;12.64;51.35;101820.53;4985608;28;20617;-61
2022/04/11 09:13:52;;;;;;;9.48;5.97;;;;;;;12.57;50.80;101821.59;4984714;28;20030;-61
2022/04/11 09:16:18;;;;;;;8.82;5.43;;;;;;;12.70;50.61;101814.19;4984122;28;20084;-61
2022/04/11 09:18:53;;;;;;;11.60;6.55;;;;;;;12.81;50.51;101816.56;4988601;28;20030;-62
2022/04/11 09:21:21;;;;;;;8.63;5.60;;;;;;;12.76;49.66;101813.16;4986740;28;20077;-62
2022/04/11 09:23:47;;;;;;;6.70;5.20;;;;;;;12.68;49.31;101810.75;4992714;28;20080;-63
2022/04/11 09:26:23;;;;;;;6.47;4.32;;;;;;;12.83;48.32;101812.09;4994255;28;20026;-63
2022/04/11 09:29:03;;;;;;;5.65;4.00;;;;;;;13.26;47.61;101809.13;4983861;28;20038;-64
2022/04/11 09:31:32;;;;;;;7.75;3.65;;;;;;;13.06;45.91;101799.97;4991062;28;20033;-64
2022/04/11 09:33:58;;;;;;;5.65;3.75;;;;;;;13.35;46.39;101795.63;4991604;28;20088;-68
2022/04/11 09:36:43;;;;;;;7.47;3.85;;;;;;;13.27;46.15;101798.50;4992115;28;20038;-64
2022/04/11 09:39:08;;;;;;;9.93;3.30;;;;;;;13.77;46.13;101791.72;4984901;28;20048;-67
2022/04/11 09:41:34;;;;;;;5.60;3.38;;;;;;;14.15;45.11;101790.50;4985054;28;20489;-61
2022/04/11 09:44:19;;;;;;;5.20;3.55;;;;;;;14.22;45.07;101792.00;4986357;28;20524;-66
2022/04/11 09:46:45;;;;;;;6.10;3.70;;;;;;;14.09;45.18;101794.19;4993499;28;20075;-67
2022/04/11 09:49:10;;;;;;;9.55;3.53;;;;;;;13.81;44.96;101794.25;4983809;28;20334;-66
2022/04/11 09:51:35;;;;;;;10.88;3.10;;;;;;;13.49;44.42;101799.63;4985625;28;20272;-66
2022/04/11 09:54:24;;;;;;;5.57;3.22;;;;;;;13.52;44.57;101795.13;4965305;28;20045;-67
2022/04/11 09:56:49;;;;;;;6.78;3.65;;;;;;;13.67;45.14;101789.41;4966019;28;20051;-68
2022/04/11 09:59:15;;;;;;;9.50;3.80;;;;;;;13.43;44.90;101786.56;4963585;28;20540;-67
2022/04/11 10:01:40;;;;;;;9.55;3.90;;;;;;;13.34;43.64;101779.78;4985419;28;20021;-67
2022/04/11 10:04:06;;;;;;;6.00;3.58;;;;;;;13.40;43.15;101780.44;4986104;28;20492;-65
2022/04/11 10:06:31;;;;;;;8.70;4.25;;;;;;;13.42;43.21;101780.41;4983103;28;20029;-68
2022/04/11 10:08:57;;;;;;;4.10;3.22;;;;;;;13.55;42.84;101780.94;4984373;28;20018;-67
2022/04/11 10:11:22;;;;;;;6.32;3.78;;;;;;;13.64;42.75;101783.28;4985184;28;20026;-66
2022/04/11 10:13:48;;;;;;;6.45;3.70;;;;;;;13.44;42.79;101783.00;4983947;28;20034;-64
2022/04/11 10:16:14;;;;;;;6.20;4.28;;;;;;;13.47;43.23;101785.56;4975728;28;20117;-65
2022/04/11 10:18:39;;;;;;;9.10;4.32;;;;;;;13.73;42.27;101789.22;4975061;28;20782;-64
2022/04/11 10:21:06;;;;;;;6.30;3.65;;;;;;;13.89;41.64;101790.44;4972643;28;20077;-64
2022/04/11 10:23:43;;;;;;;7.28;4.50;;;;;;;13.73;42.12;101790.06;4977666;28;20124;-64
2022/04/11 10:26:16;;;;;;;9.55;4.72;;;;;;;13.64;42.08;101779.78;4975789;28;20034;-66
2022/04/11 10:28:51;;;;;;;8.23;5.03;;;;;;;13.90;42.52;101776.28;4985469;28;20014;-66
2022/04/11 10:31:17;;;;;;;10.30;5.00;;;;;;;14.22;43.35;101764.63;4984800;28;20190;-64
2022/04/11 10:33:50;;;;;;;7.43;4.82;;;;;;;14.23;41.49;101766.34;4982569;28;20121;-63
2022/04/11 10:36:35;;;;;;;7.15;4.47;;;;;;;14.44;40.31;101764.75;4984674;28;20025;-64
2022/04/11 10:39:13;;;;;;;7.63;4.40;;;;;;;14.69;40.86;101758.53;4984033;28;20116;-64
2022/04/11 10:42:17;;;;;;;8.85;4.40;;;;;;;14.70;40.12;101757.66;5000052;28;20037;-64
2022/04/11 10:44:53;;;;;;;7.57;4.22;;;;;;;14.77;39.21;101755.63;4973046;28;20042;-65
2022/04/11 10:47:21;;;;;;;7.57;4.80;;;;;;;14.25;39.74;101749.50;5004351;28;20033;-64
2022/04/11 10:49:49;;;;;;;6.37;4.73;;;;;;;14.23;40.88;101747.78;5003029;28;20564;-62
2022/04/11 10:52:26;;;;;;;8.90;4.30;;;;;;;14.64;40.33;101744.59;5003643;28;20053;-64
2022/04/11 10:54:54;;;;;;;6.53;4.53;;;;;;;14.94;40.99;101744.41;5003027;28;20034;-68
2022/04/11 10:57:37;;;;;;;11.10;4.50;;;;;;;14.88;40.21;101745.53;5005239;28;20370;-66
2022/04/11 11:00:02;;;;;;;6.25;4.32;;;;;;;15.25;41.71;101737.03;5001084;28;20434;-66
2022/04/11 11:02:48;;;;;;;6.72;4.60;;;;;;;15.16;39.93;101725.88;4989030;28;20062;-65
2022/04/11 11:05:43;;;;;;;7.95;4.07;;;;;;;15.38;39.35;101730.31;4996011;28;20575;-64
2022/04/11 11:08:12;;;;;;;6.82;4.30;;;;;;;15.60;37.59;101718.84;5006310;28;20092;-64
2022/04/11 11:10:58;;;;;;;6.80;3.90;;;;;;;15.74;40.31;101718.25;5007229;28;20041;-65
2022/04/11 11:13:36;;;;;;;7.32;4.28;;;;;;;15.24;37.88;101714.09;5008716;28;20021;-63
2022/04/11 11:16:21;;;;;;;7.07;4.03;;;;;;;15.22;38.04;101702.66;4989283;28;20551;-65
2022/04/11 11:18:46;;;;;;;13.85;4.20;;;;;;;15.39;37.59;101699.31;4987695;28;20035;-63
2022/04/11 11:21:13;;;;;;;7.88;3.58;;;;;;;15.60;39.52;101692.28;4987457;28;20497;-63
2022/04/11 11:23:38;;;;;;;5.43;3.90;;;;;;;15.94;37.13;101689.97;4989171;28;20026;-63
2022/04/11 11:26:12;;;;;;;6.45;3.83;;;;;;;15.77;37.91;101682.72;4999454;28;20031;-62